sensor_id;sensor_type;location;lat;lon;timestamp;P1;durP1;ratioP1;P2;durP2;ratioP2
65373;SDS011;52070;53.760;9.678;2023-03-01T00:01:38;24.00;;;10.85;;
65373;SDS011;52070;53.760;9.678;2023-03-01T00:04:07;21.02;;;11.25;;
65373;SDS011;52070;53.760;9.678;2023-03-01T00:06:34;24.27;;;11.57;;
65373;SDS011;52070;53.760;9.678;2023-03-01T00:09:01;28.33;;;12.82;;
65373;SDS011;52070;53.760;9.678;2023-03-01T00:11:28;22.65;;;11.27;;
65373;SDS011;52070;53.760;9.678;2023-03-01T00:13:57;30.23;;;12.45;;
65373;SDS011;52070;53.760;9.678;2023-03-01T00:16:27;24.45;;;10.88;;
65373;SDS011;52070;53.760;9.678;2023-03-01T00:18:55;22.17;;;11.70;;
65373;SDS011;52070;53.760;9.678;2023-03-01T00:21:25;25.02;;;11.00;;
65373;SDS011;52070;53.760;9.678;2023-03-01T00:23:53;23.75;;;10.75;;
65373;SDS011;52070;53.760;9.678;2023-03-01T00:26:21;26.95;;;11.50;;
65373;SDS011;52070;53.760;9.678;2023-03-01T00:28:48;23.40;;;10.82;;
65373;SDS011;52070;53.760;9.678;2023-03-01T00:31:17;22.42;;;10.82;;
65373;SDS011;52070;53.760;9.678;2023-03-01T00:33:46;24.23;;;11.00;;
65373;SDS011;52070;53.760;9.678;2023-03-01T00:36:14;22.13;;;11.07;;
65373;SDS011;52070;53.760;9.678;2023-03-01T00:38:44;23.27;;;11.48;;
65373;SDS011;52070;53.760;9.678;2023-03-01T00:41:12;26.63;;;12.07;;
65373;SDS011;52070;53.760;9.678;2023-03-01T00:43:40;24.70;;;11.70;;
65373;SDS011;52070;53.760;9.678;2023-03-01T00:46:08;20.83;;;11.35;;
65373;SDS011;52070;53.760;9.678;2023-03-01T00:48:36;24.45;;;11.90;;
65373;SDS011;52070;53.760;9.678;2023-03-01T00:51:04;22.33;;;11.05;;
65373;SDS011;52070;53.760;9.678;2023-03-01T00:53:32;23.67;;;10.50;;
65373;SDS011;52070;53.760;9.678;2023-03-01T00:56:01;22.25;;;11.27;;
65373;SDS011;52070;53.760;9.678;2023-03-01T00:58:29;18.63;;;10.40;;
65373;SDS011;52070;53.760;9.678;2023-03-01T01:00:56;23.13;;;10.27;;
65373;SDS011;52070;53.760;9.678;2023-03-01T01:03:23;20.92;;;10.20;;
65373;SDS011;52070;53.760;9.678;2023-03-01T01:05:51;23.85;;;11.05;;
65373;SDS011;52070;53.760;9.678;2023-03-01T01:08:18;22.35;;;10.57;;
65373;SDS011;52070;53.760;9.678;2023-03-01T01:10:45;20.00;;;10.27;;
65373;SDS011;52070;53.760;9.678;2023-03-01T01:13:14;21.08;;;9.95;;
65373;SDS011;52070;53.760;9.678;2023-03-01T01:15:41;21.40;;;9.75;;
65373;SDS011;52070;53.760;9.678;2023-03-01T01:18:08;21.17;;;9.52;;
65373;SDS011;52070;53.760;9.678;2023-03-01T01:20:35;18.52;;;9.30;;
65373;SDS011;52070;53.760;9.678;2023-03-01T01:23:04;16.77;;;8.63;;
65373;SDS011;52070;53.760;9.678;2023-03-01T01:25:33;19.00;;;8.93;;
65373;SDS011;52070;53.760;9.678;2023-03-01T01:28:01;16.88;;;8.90;;
65373;SDS011;52070;53.760;9.678;2023-03-01T01:30:29;17.02;;;8.30;;
65373;SDS011;52070;53.760;9.678;2023-03-01T01:32:56;17.20;;;8.77;;
65373;SDS011;52070;53.760;9.678;2023-03-01T01:35:23;19.17;;;9.40;;
65373;SDS011;52070;53.760;9.678;2023-03-01T01:37:50;16.65;;;8.80;;
65373;SDS011;52070;53.760;9.678;2023-03-01T01:40:17;21.00;;;9.48;;
65373;SDS011;52070;53.760;9.678;2023-03-01T01:42:44;19.08;;;9.63;;
65373;SDS011;52070;53.760;9.678;2023-03-01T01:47:58;19.20;;;8.52;;
65373;SDS011;52070;53.760;9.678;2023-03-01T01:50:27;19.05;;;9.00;;
65373;SDS011;52070;53.760;9.678;2023-03-01T01:53:04;14.32;;;8.85;;
65373;SDS011;52070;53.760;9.678;2023-03-01T01:55:33;15.85;;;8.50;;
65373;SDS011;52070;53.760;9.678;2023-03-01T01:58:04;16.98;;;8.77;;
65373;SDS011;52070;53.760;9.678;2023-03-01T02:00:34;20.42;;;9.07;;
65373;SDS011;52070;53.760;9.678;2023-03-01T02:03:03;14.88;;;8.20;;
65373;SDS011;52070;53.760;9.678;2023-03-01T02:05:35;17.10;;;8.77;;
65373;SDS011;52070;53.760;9.678;2023-03-01T02:08:05;22.73;;;8.57;;
65373;SDS011;52070;53.760;9.678;2023-03-01T02:10:33;17.17;;;8.57;;
65373;SDS011;52070;53.760;9.678;2023-03-01T02:13:01;14.50;;;8.55;;
65373;SDS011;52070;53.760;9.678;2023-03-01T02:15:31;17.48;;;8.18;;
65373;SDS011;52070;53.760;9.678;2023-03-01T02:18:00;18.73;;;8.65;;
65373;SDS011;52070;53.760;9.678;2023-03-01T02:20:31;17.50;;;8.50;;
65373;SDS011;52070;53.760;9.678;2023-03-01T02:23:01;16.05;;;8.02;;
65373;SDS011;52070;53.760;9.678;2023-03-01T02:25:33;15.10;;;7.78;;
65373;SDS011;52070;53.760;9.678;2023-03-01T02:28:04;18.15;;;8.70;;
65373;SDS011;52070;53.760;9.678;2023-03-01T02:30:38;14.73;;;8.45;;
65373;SDS011;52070;53.760;9.678;2023-03-01T02:33:26;12.18;;;7.97;;
65373;SDS011;52070;53.760;9.678;2023-03-01T02:35:53;16.20;;;8.30;;
65373;SDS011;52070;53.760;9.678;2023-03-01T02:38:21;21.90;;;9.05;;
65373;SDS011;52070;53.760;9.678;2023-03-01T02:40:49;14.85;;;7.60;;
65373;SDS011;52070;53.760;9.678;2023-03-01T02:43:17;16.75;;;8.43;;
65373;SDS011;52070;53.760;9.678;2023-03-01T02:45:51;17.45;;;9.00;;
65373;SDS011;52070;53.760;9.678;2023-03-01T02:48:19;17.25;;;8.65;;
65373;SDS011;52070;53.760;9.678;2023-03-01T02:50:51;22.05;;;9.20;;
65373;SDS011;52070;53.760;9.678;2023-03-01T02:53:32;17.88;;;8.73;;
65373;SDS011;52070;53.760;9.678;2023-03-01T02:56:05;15.05;;;7.90;;
65373;SDS011;52070;53.760;9.678;2023-03-01T02:58:38;18.60;;;8.63;;
65373;SDS011;52070;53.760;9.678;2023-03-01T03:01:12;18.17;;;8.52;;
65373;SDS011;52070;53.760;9.678;2023-03-01T03:03:40;15.68;;;8.38;;
65373;SDS011;52070;53.760;9.678;2023-03-01T03:06:08;16.98;;;8.68;;
65373;SDS011;52070;53.760;9.678;2023-03-01T03:08:35;15.98;;;9.27;;
65373;SDS011;52070;53.760;9.678;2023-03-01T03:11:03;17.83;;;9.13;;
65373;SDS011;52070;53.760;9.678;2023-03-01T03:13:30;16.23;;;9.10;;
65373;SDS011;52070;53.760;9.678;2023-03-01T03:15:57;16.55;;;8.57;;
65373;SDS011;52070;53.760;9.678;2023-03-01T03:18:26;16.02;;;8.35;;
65373;SDS011;52070;53.760;9.678;2023-03-01T03:20:53;18.75;;;9.15;;
65373;SDS011;52070;53.760;9.678;2023-03-01T03:23:21;16.65;;;8.70;;
65373;SDS011;52070;53.760;9.678;2023-03-01T03:25:48;19.23;;;9.13;;
65373;SDS011;52070;53.760;9.678;2023-03-01T03:28:16;16.77;;;8.75;;
65373;SDS011;52070;53.760;9.678;2023-03-01T03:30:43;17.90;;;8.23;;
65373;SDS011;52070;53.760;9.678;2023-03-01T03:33:12;18.13;;;8.77;;
65373;SDS011;52070;53.760;9.678;2023-03-01T03:35:41;17.70;;;8.68;;
65373;SDS011;52070;53.760;9.678;2023-03-01T03:38:11;17.02;;;9.13;;
65373;SDS011;52070;53.760;9.678;2023-03-01T03:40:44;17.58;;;9.18;;
65373;SDS011;52070;53.760;9.678;2023-03-01T03:43:13;18.23;;;8.35;;
65373;SDS011;52070;53.760;9.678;2023-03-01T03:45:43;16.45;;;8.60;;
65373;SDS011;52070;53.760;9.678;2023-03-01T03:48:10;20.10;;;9.02;;
65373;SDS011;52070;53.760;9.678;2023-03-01T03:50:38;21.02;;;9.43;;
65373;SDS011;52070;53.760;9.678;2023-03-01T03:53:07;19.00;;;8.88;;
65373;SDS011;52070;53.760;9.678;2023-03-01T03:55:36;18.48;;;9.38;;
65373;SDS011;52070;53.760;9.678;2023-03-01T03:58:08;19.05;;;10.43;;
65373;SDS011;52070;53.760;9.678;2023-03-01T04:03:04;19.88;;;9.15;;
65373;SDS011;52070;53.760;9.678;2023-03-01T04:05:31;17.10;;;9.20;;
65373;SDS011;52070;53.760;9.678;2023-03-01T04:07:58;16.33;;;9.18;;
65373;SDS011;52070;53.760;9.678;2023-03-01T04:10:33;17.33;;;8.40;;
65373;SDS011;52070;53.760;9.678;2023-03-01T04:13:01;23.23;;;9.02;;
65373;SDS011;52070;53.760;9.678;2023-03-01T04:15:28;19.75;;;9.60;;
65373;SDS011;52070;53.760;9.678;2023-03-01T04:17:56;19.92;;;9.68;;
65373;SDS011;52070;53.760;9.678;2023-03-01T04:20:25;19.63;;;8.95;;
65373;SDS011;52070;53.760;9.678;2023-03-01T04:22:56;16.85;;;9.13;;
65373;SDS011;52070;53.760;9.678;2023-03-01T04:25:25;18.77;;;9.35;;
65373;SDS011;52070;53.760;9.678;2023-03-01T04:27:53;20.38;;;9.23;;
65373;SDS011;52070;53.760;9.678;2023-03-01T04:30:20;18.42;;;8.95;;
65373;SDS011;52070;53.760;9.678;2023-03-01T04:32:50;22.83;;;9.07;;
65373;SDS011;52070;53.760;9.678;2023-03-01T04:35:17;17.65;;;10.05;;
65373;SDS011;52070;53.760;9.678;2023-03-01T04:37:44;22.58;;;9.45;;
65373;SDS011;52070;53.760;9.678;2023-03-01T04:40:12;18.00;;;9.30;;
65373;SDS011;52070;53.760;9.678;2023-03-01T04:42:41;18.10;;;9.02;;
65373;SDS011;52070;53.760;9.678;2023-03-01T04:45:10;18.50;;;9.90;;
65373;SDS011;52070;53.760;9.678;2023-03-01T04:47:40;21.25;;;8.93;;
65373;SDS011;52070;53.760;9.678;2023-03-01T04:50:08;18.35;;;9.70;;
65373;SDS011;52070;53.760;9.678;2023-03-01T04:52:36;16.42;;;9.20;;
65373;SDS011;52070;53.760;9.678;2023-03-01T04:55:04;16.58;;;9.20;;
65373;SDS011;52070;53.760;9.678;2023-03-01T04:57:32;14.68;;;9.18;;
65373;SDS011;52070;53.760;9.678;2023-03-01T04:59:59;16.98;;;9.43;;
65373;SDS011;52070;53.760;9.678;2023-03-01T05:02:27;20.73;;;9.88;;
65373;SDS011;52070;53.760;9.678;2023-03-01T05:04:54;20.08;;;9.68;;
65373;SDS011;52070;53.760;9.678;2023-03-01T05:07:23;16.98;;;9.45;;
65373;SDS011;52070;53.760;9.678;2023-03-01T05:09:51;21.98;;;9.90;;
65373;SDS011;52070;53.760;9.678;2023-03-01T05:12:19;19.65;;;10.13;;
65373;SDS011;52070;53.760;9.678;2023-03-01T05:14:46;20.55;;;9.95;;
65373;SDS011;52070;53.760;9.678;2023-03-01T05:17:13;18.60;;;9.90;;
65373;SDS011;52070;53.760;9.678;2023-03-01T05:19:42;21.77;;;9.93;;
65373;SDS011;52070;53.760;9.678;2023-03-01T05:22:09;20.00;;;9.55;;
65373;SDS011;52070;53.760;9.678;2023-03-01T05:24:35;20.20;;;9.98;;
65373;SDS011;52070;53.760;9.678;2023-03-01T05:27:04;20.77;;;9.57;;
65373;SDS011;52070;53.760;9.678;2023-03-01T05:29:32;18.17;;;10.20;;
65373;SDS011;52070;53.760;9.678;2023-03-01T05:32:01;18.25;;;9.63;;
65373;SDS011;52070;53.760;9.678;2023-03-01T05:34:29;18.55;;;10.20;;
65373;SDS011;52070;53.760;9.678;2023-03-01T05:37:02;23.50;;;10.55;;
65373;SDS011;52070;53.760;9.678;2023-03-01T05:39:30;22.05;;;10.40;;
65373;SDS011;52070;53.760;9.678;2023-03-01T05:41:58;19.17;;;10.15;;
65373;SDS011;52070;53.760;9.678;2023-03-01T05:44:26;20.60;;;10.80;;
65373;SDS011;52070;53.760;9.678;2023-03-01T05:46:54;20.17;;;9.98;;
65373;SDS011;52070;53.760;9.678;2023-03-01T05:49:22;19.95;;;10.48;;
65373;SDS011;52070;53.760;9.678;2023-03-01T05:51:50;18.73;;;10.73;;
65373;SDS011;52070;53.760;9.678;2023-03-01T05:54:20;19.38;;;10.20;;
65373;SDS011;52070;53.760;9.678;2023-03-01T05:56:48;20.98;;;10.55;;
65373;SDS011;52070;53.760;9.678;2023-03-01T05:59:15;20.08;;;10.02;;
65373;SDS011;52070;53.760;9.678;2023-03-01T06:01:42;18.13;;;9.75;;
65373;SDS011;52070;53.760;9.678;2023-03-01T06:04:09;20.42;;;10.73;;
65373;SDS011;52070;53.760;9.678;2023-03-01T06:06:36;23.70;;;11.40;;
65373;SDS011;52070;53.760;9.678;2023-03-01T06:09:04;22.17;;;11.30;;
65373;SDS011;52070;53.760;9.678;2023-03-01T06:11:34;27.05;;;12.82;;
65373;SDS011;52070;53.760;9.678;2023-03-01T06:14:02;28.50;;;13.98;;
65373;SDS011;52070;53.760;9.678;2023-03-01T06:16:29;32.47;;;14.05;;
65373;SDS011;52070;53.760;9.678;2023-03-01T06:18:56;30.48;;;14.30;;
65373;SDS011;52070;53.760;9.678;2023-03-01T06:21:23;30.00;;;14.52;;
65373;SDS011;52070;53.760;9.678;2023-03-01T06:23:50;31.30;;;14.38;;
65373;SDS011;52070;53.760;9.678;2023-03-01T06:26:18;30.85;;;14.32;;
65373;SDS011;52070;53.760;9.678;2023-03-01T06:28:46;35.33;;;14.32;;
65373;SDS011;52070;53.760;9.678;2023-03-01T06:31:13;28.95;;;14.60;;
65373;SDS011;52070;53.760;9.678;2023-03-01T06:33:41;29.00;;;13.02;;
65373;SDS011;52070;53.760;9.678;2023-03-01T06:36:10;32.05;;;14.23;;
65373;SDS011;52070;53.760;9.678;2023-03-01T06:38:37;36.95;;;14.55;;
65373;SDS011;52070;53.760;9.678;2023-03-01T06:41:06;33.55;;;14.40;;
65373;SDS011;52070;53.760;9.678;2023-03-01T06:43:33;36.45;;;15.32;;
65373;SDS011;52070;53.760;9.678;2023-03-01T06:46:02;49.00;;;17.23;;
65373;SDS011;52070;53.760;9.678;2023-03-01T06:48:30;37.60;;;16.60;;
65373;SDS011;52070;53.760;9.678;2023-03-01T06:50:57;68.85;;;18.10;;
65373;SDS011;52070;53.760;9.678;2023-03-01T06:53:24;55.95;;;17.35;;
65373;SDS011;52070;53.760;9.678;2023-03-01T06:55:53;40.72;;;17.95;;
65373;SDS011;52070;53.760;9.678;2023-03-01T06:58:21;66.95;;;18.17;;
65373;SDS011;52070;53.760;9.678;2023-03-01T07:00:48;37.15;;;16.48;;
65373;SDS011;52070;53.760;9.678;2023-03-01T07:03:16;40.92;;;17.00;;
65373;SDS011;52070;53.760;9.678;2023-03-01T07:05:43;38.78;;;16.27;;
65373;SDS011;52070;53.760;9.678;2023-03-01T07:08:10;43.60;;;15.90;;
65373;SDS011;52070;53.760;9.678;2023-03-01T07:10:37;35.33;;;14.95;;
65373;SDS011;52070;53.760;9.678;2023-03-01T07:13:04;33.85;;;14.55;;
65373;SDS011;52070;53.760;9.678;2023-03-01T07:15:32;28.15;;;14.02;;
65373;SDS011;52070;53.760;9.678;2023-03-01T07:17:59;50.42;;;12.40;;
65373;SDS011;52070;53.760;9.678;2023-03-01T07:20:27;31.48;;;13.88;;
65373;SDS011;52070;53.760;9.678;2023-03-01T07:22:55;34.58;;;13.45;;
65373;SDS011;52070;53.760;9.678;2023-03-01T07:25:24;26.40;;;12.75;;
65373;SDS011;52070;53.760;9.678;2023-03-01T07:27:51;46.05;;;13.05;;
65373;SDS011;52070;53.760;9.678;2023-03-01T07:30:18;29.60;;;13.02;;
65373;SDS011;52070;53.760;9.678;2023-03-01T07:32:46;28.75;;;12.20;;
65373;SDS011;52070;53.760;9.678;2023-03-01T07:35:13;36.42;;;13.13;;
65373;SDS011;52070;53.760;9.678;2023-03-01T07:37:42;30.92;;;13.60;;
65373;SDS011;52070;53.760;9.678;2023-03-01T07:40:10;28.50;;;12.75;;
65373;SDS011;52070;53.760;9.678;2023-03-01T07:42:38;24.88;;;12.35;;
65373;SDS011;52070;53.760;9.678;2023-03-01T07:45:05;31.75;;;13.45;;
65373;SDS011;52070;53.760;9.678;2023-03-01T07:47:33;39.42;;;13.57;;
65373;SDS011;52070;53.760;9.678;2023-03-01T07:50:00;33.63;;;12.80;;
65373;SDS011;52070;53.760;9.678;2023-03-01T07:52:28;28.67;;;13.23;;
65373;SDS011;52070;53.760;9.678;2023-03-01T07:54:56;31.38;;;13.40;;
65373;SDS011;52070;53.760;9.678;2023-03-01T07:57:23;31.17;;;13.40;;
65373;SDS011;52070;53.760;9.678;2023-03-01T07:59:51;29.38;;;11.75;;
65373;SDS011;52070;53.760;9.678;2023-03-01T08:02:21;28.08;;;12.40;;
65373;SDS011;52070;53.760;9.678;2023-03-01T08:04:50;28.20;;;12.77;;
65373;SDS011;52070;53.760;9.678;2023-03-01T08:07:17;27.75;;;12.35;;
65373;SDS011;52070;53.760;9.678;2023-03-01T08:09:44;28.05;;;12.20;;
65373;SDS011;52070;53.760;9.678;2023-03-01T08:12:13;27.60;;;11.95;;
65373;SDS011;52070;53.760;9.678;2023-03-01T08:14:41;22.60;;;11.13;;
65373;SDS011;52070;53.760;9.678;2023-03-01T08:17:08;24.98;;;11.63;;
65373;SDS011;52070;53.760;9.678;2023-03-01T08:19:35;22.92;;;10.45;;
65373;SDS011;52070;53.760;9.678;2023-03-01T08:22:02;24.77;;;11.60;;
65373;SDS011;52070;53.760;9.678;2023-03-01T08:24:29;20.35;;;10.15;;
65373;SDS011;52070;53.760;9.678;2023-03-01T08:26:56;18.48;;;9.85;;
65373;SDS011;52070;53.760;9.678;2023-03-01T08:29:24;20.35;;;9.70;;
65373;SDS011;52070;53.760;9.678;2023-03-01T08:31:51;19.23;;;9.15;;
65373;SDS011;52070;53.760;9.678;2023-03-01T08:34:18;19.40;;;9.15;;
65373;SDS011;52070;53.760;9.678;2023-03-01T08:36:45;19.25;;;9.07;;
65373;SDS011;52070;53.760;9.678;2023-03-01T08:39:13;22.40;;;10.52;;
65373;SDS011;52070;53.760;9.678;2023-03-01T08:41:41;23.00;;;10.23;;
65373;SDS011;52070;53.760;9.678;2023-03-01T08:44:08;21.17;;;9.55;;
65373;SDS011;52070;53.760;9.678;2023-03-01T08:46:40;27.50;;;8.75;;
65373;SDS011;52070;53.760;9.678;2023-03-01T08:49:08;19.35;;;7.20;;
65373;SDS011;52070;53.760;9.678;2023-03-01T08:51:37;44.88;;;8.20;;
65373;SDS011;52070;53.760;9.678;2023-03-01T08:54:05;33.65;;;8.18;;
65373;SDS011;52070;53.760;9.678;2023-03-01T08:56:33;20.13;;;8.43;;
65373;SDS011;52070;53.760;9.678;2023-03-01T08:59:00;20.95;;;7.82;;
65373;SDS011;52070;53.760;9.678;2023-03-01T09:01:27;24.40;;;8.35;;
65373;SDS011;52070;53.760;9.678;2023-03-01T09:03:55;21.20;;;7.82;;
65373;SDS011;52070;53.760;9.678;2023-03-01T09:06:22;20.75;;;8.18;;
65373;SDS011;52070;53.760;9.678;2023-03-01T09:08:49;26.98;;;8.73;;
65373;SDS011;52070;53.760;9.678;2023-03-01T09:11:17;19.02;;;7.90;;
65373;SDS011;52070;53.760;9.678;2023-03-01T09:13:46;30.63;;;8.98;;
65373;SDS011;52070;53.760;9.678;2023-03-01T09:16:15;30.23;;;8.23;;
65373;SDS011;52070;53.760;9.678;2023-03-01T09:18:43;30.30;;;7.65;;
65373;SDS011;52070;53.760;9.678;2023-03-01T09:21:12;17.90;;;7.45;;
65373;SDS011;52070;53.760;9.678;2023-03-01T09:23:41;21.58;;;7.15;;
65373;SDS011;52070;53.760;9.678;2023-03-01T09:26:09;22.92;;;6.43;;
65373;SDS011;52070;53.760;9.678;2023-03-01T09:28:38;18.85;;;7.25;;
65373;SDS011;52070;53.760;9.678;2023-03-01T09:31:06;20.50;;;7.03;;
65373;SDS011;52070;53.760;9.678;2023-03-01T09:33:33;15.82;;;6.93;;
65373;SDS011;52070;53.760;9.678;2023-03-01T09:36:01;18.50;;;7.45;;
65373;SDS011;52070;53.760;9.678;2023-03-01T09:38:31;15.90;;;7.15;;
65373;SDS011;52070;53.760;9.678;2023-03-01T09:40:59;17.90;;;7.70;;
65373;SDS011;52070;53.760;9.678;2023-03-01T09:43:27;28.48;;;6.75;;
65373;SDS011;52070;53.760;9.678;2023-03-01T09:46:02;13.88;;;7.30;;
65373;SDS011;52070;53.760;9.678;2023-03-01T09:48:33;22.23;;;8.23;;
65373;SDS011;52070;53.760;9.678;2023-03-01T09:51:06;21.52;;;6.55;;
65373;SDS011;52070;53.760;9.678;2023-03-01T09:53:40;18.73;;;7.78;;
65373;SDS011;52070;53.760;9.678;2023-03-01T09:56:10;23.27;;;7.80;;
65373;SDS011;52070;53.760;9.678;2023-03-01T09:58:47;16.70;;;7.57;;
65373;SDS011;52070;53.760;9.678;2023-03-01T10:01:26;22.65;;;8.73;;
65373;SDS011;52070;53.760;9.678;2023-03-01T10:04:00;24.27;;;7.75;;
65373;SDS011;52070;53.760;9.678;2023-03-01T10:06:36;18.08;;;7.60;;
65373;SDS011;52070;53.760;9.678;2023-03-01T10:09:07;21.00;;;8.15;;
65373;SDS011;52070;53.760;9.678;2023-03-01T10:11:39;23.55;;;7.88;;
65373;SDS011;52070;53.760;9.678;2023-03-01T10:14:13;20.13;;;8.60;;
65373;SDS011;52070;53.760;9.678;2023-03-01T10:16:48;19.10;;;9.00;;
65373;SDS011;52070;53.760;9.678;2023-03-01T10:19:20;43.90;;;9.10;;
65373;SDS011;52070;53.760;9.678;2023-03-01T10:21:51;24.15;;;10.30;;
65373;SDS011;52070;53.760;9.678;2023-03-01T10:24:20;21.60;;;10.20;;
65373;SDS011;52070;53.760;9.678;2023-03-01T10:26:48;36.00;;;10.85;;
65373;SDS011;52070;53.760;9.678;2023-03-01T10:29:22;23.83;;;10.95;;
65373;SDS011;52070;53.760;9.678;2023-03-01T10:31:52;28.08;;;11.15;;
65373;SDS011;52070;53.760;9.678;2023-03-01T10:34:21;32.13;;;11.68;;
65373;SDS011;52070;53.760;9.678;2023-03-01T10:36:49;39.83;;;12.80;;
65373;SDS011;52070;53.760;9.678;2023-03-01T10:39:21;29.00;;;12.43;;
65373;SDS011;52070;53.760;9.678;2023-03-01T10:41:54;32.85;;;13.05;;
65373;SDS011;52070;53.760;9.678;2023-03-01T10:44:42;62.33;;;14.00;;
65373;SDS011;52070;53.760;9.678;2023-03-01T10:47:15;39.25;;;13.88;;
65373;SDS011;52070;53.760;9.678;2023-03-01T10:49:57;42.03;;;14.35;;
65373;SDS011;52070;53.760;9.678;2023-03-01T10:52:32;76.20;;;15.73;;
65373;SDS011;52070;53.760;9.678;2023-03-01T10:55:03;42.22;;;14.73;;
65373;SDS011;52070;53.760;9.678;2023-03-01T10:57:49;39.88;;;15.82;;
65373;SDS011;52070;53.760;9.678;2023-03-01T11:00:32;33.85;;;14.95;;
65373;SDS011;52070;53.760;9.678;2023-03-01T11:03:03;37.65;;;14.70;;
65373;SDS011;52070;53.760;9.678;2023-03-01T11:05:37;37.67;;;14.40;;
65373;SDS011;52070;53.760;9.678;2023-03-01T11:08:28;39.17;;;15.35;;
65373;SDS011;52070;53.760;9.678;2023-03-01T11:11:05;36.15;;;16.15;;
65373;SDS011;52070;53.760;9.678;2023-03-01T11:13:55;43.83;;;16.92;;
65373;SDS011;52070;53.760;9.678;2023-03-01T11:16:31;42.00;;;16.65;;
65373;SDS011;52070;53.760;9.678;2023-03-01T11:19:19;39.28;;;15.93;;
65373;SDS011;52070;53.760;9.678;2023-03-01T11:21:51;38.75;;;16.55;;
65373;SDS011;52070;53.760;9.678;2023-03-01T11:24:24;43.75;;;15.65;;
65373;SDS011;52070;53.760;9.678;2023-03-01T11:26:57;37.15;;;15.10;;
65373;SDS011;52070;53.760;9.678;2023-03-01T11:29:30;51.95;;;17.95;;
65373;SDS011;52070;53.760;9.678;2023-03-01T11:32:03;40.55;;;16.58;;
65373;SDS011;52070;53.760;9.678;2023-03-01T11:34:36;36.05;;;15.48;;
65373;SDS011;52070;53.760;9.678;2023-03-01T11:37:09;33.50;;;13.63;;
65373;SDS011;52070;53.760;9.678;2023-03-01T11:39:43;27.60;;;12.85;;
65373;SDS011;52070;53.760;9.678;2023-03-01T11:42:17;29.85;;;14.07;;
65373;SDS011;52070;53.760;9.678;2023-03-01T11:44:47;30.48;;;12.98;;
65373;SDS011;52070;53.760;9.678;2023-03-01T11:47:27;24.88;;;11.43;;
65373;SDS011;52070;53.760;9.678;2023-03-01T11:50:05;24.50;;;11.73;;
65373;SDS011;52070;53.760;9.678;2023-03-01T11:52:42;24.45;;;11.98;;
65373;SDS011;52070;53.760;9.678;2023-03-01T11:55:22;28.45;;;12.88;;
65373;SDS011;52070;53.760;9.678;2023-03-01T11:58:01;27.10;;;13.00;;
65373;SDS011;52070;53.760;9.678;2023-03-01T12:00:45;26.35;;;12.75;;
65373;SDS011;52070;53.760;9.678;2023-03-01T12:03:33;25.50;;;12.95;;
65373;SDS011;52070;53.760;9.678;2023-03-01T12:06:18;30.50;;;13.50;;
65373;SDS011;52070;53.760;9.678;2023-03-01T12:09:02;29.48;;;13.30;;
65373;SDS011;52070;53.760;9.678;2023-03-01T12:11:48;21.45;;;11.32;;
65373;SDS011;52070;53.760;9.678;2023-03-01T12:14:40;22.63;;;10.35;;
65373;SDS011;52070;53.760;9.678;2023-03-01T12:17:31;22.00;;;10.38;;
65373;SDS011;52070;53.760;9.678;2023-03-01T12:20:22;20.20;;;10.10;;
65373;SDS011;52070;53.760;9.678;2023-03-01T12:23:07;23.33;;;10.73;;
65373;SDS011;52070;53.760;9.678;2023-03-01T12:25:48;20.40;;;10.10;;
65373;SDS011;52070;53.760;9.678;2023-03-01T12:28:28;19.30;;;9.80;;
65373;SDS011;52070;53.760;9.678;2023-03-01T12:34:27;21.88;;;9.98;;
65373;SDS011;52070;53.760;9.678;2023-03-01T12:37:14;19.40;;;9.57;;
65373;SDS011;52070;53.760;9.678;2023-03-01T12:39:51;16.97;;;9.10;;
65373;SDS011;52070;53.760;9.678;2023-03-01T12:42:31;18.85;;;9.40;;
65373;SDS011;52070;53.760;9.678;2023-03-01T12:45:14;19.75;;;9.88;;
65373;SDS011;52070;53.760;9.678;2023-03-01T12:48:01;21.13;;;9.68;;
65373;SDS011;52070;53.760;9.678;2023-03-01T12:50:40;18.90;;;9.90;;
65373;SDS011;52070;53.760;9.678;2023-03-01T12:53:14;20.98;;;9.02;;
65373;SDS011;52070;53.760;9.678;2023-03-01T12:55:48;20.67;;;9.68;;
65373;SDS011;52070;53.760;9.678;2023-03-01T12:58:17;20.30;;;9.68;;
65373;SDS011;52070;53.760;9.678;2023-03-01T13:00:54;21.38;;;9.75;;
65373;SDS011;52070;53.760;9.678;2023-03-01T13:03:33;19.55;;;9.57;;
65373;SDS011;52070;53.760;9.678;2023-03-01T13:06:24;23.27;;;9.48;;
65373;SDS011;52070;53.760;9.678;2023-03-01T13:08:58;21.15;;;9.32;;
65373;SDS011;52070;53.760;9.678;2023-03-01T13:11:30;21.80;;;9.88;;
65373;SDS011;52070;53.760;9.678;2023-03-01T13:16:57;16.77;;;8.93;;
65373;SDS011;52070;53.760;9.678;2023-03-01T13:19:26;19.02;;;9.27;;
65373;SDS011;52070;53.760;9.678;2023-03-01T13:21:55;18.67;;;9.30;;
65373;SDS011;52070;53.760;9.678;2023-03-01T13:24:23;16.98;;;9.30;;
65373;SDS011;52070;53.760;9.678;2023-03-01T13:27:10;22.58;;;10.23;;
65373;SDS011;52070;53.760;9.678;2023-03-01T13:29:50;23.00;;;10.45;;
65373;SDS011;52070;53.760;9.678;2023-03-01T13:32:19;19.40;;;10.15;;
65373;SDS011;52070;53.760;9.678;2023-03-01T13:34:55;18.45;;;10.38;;
65373;SDS011;52070;53.760;9.678;2023-03-01T13:37:25;19.33;;;9.55;;
65373;SDS011;52070;53.760;9.678;2023-03-01T13:39:57;17.83;;;9.52;;
65373;SDS011;52070;53.760;9.678;2023-03-01T13:42:31;21.50;;;10.40;;
65373;SDS011;52070;53.760;9.678;2023-03-01T13:45:03;19.60;;;10.57;;
65373;SDS011;52070;53.760;9.678;2023-03-01T13:47:40;20.77;;;10.35;;
65373;SDS011;52070;53.760;9.678;2023-03-01T13:50:16;21.30;;;11.60;;
65373;SDS011;52070;53.760;9.678;2023-03-01T13:52:48;23.77;;;11.43;;
65373;SDS011;52070;53.760;9.678;2023-03-01T13:55:18;22.35;;;10.73;;
65373;SDS011;52070;53.760;9.678;2023-03-01T13:57:50;21.42;;;10.80;;
65373;SDS011;52070;53.760;9.678;2023-03-01T14:00:30;20.80;;;10.75;;
65373;SDS011;52070;53.760;9.678;2023-03-01T14:03:04;24.13;;;11.70;;
65373;SDS011;52070;53.760;9.678;2023-03-01T14:05:36;23.45;;;11.07;;
65373;SDS011;52070;53.760;9.678;2023-03-01T14:08:04;20.45;;;10.73;;
65373;SDS011;52070;53.760;9.678;2023-03-01T14:10:44;22.55;;;11.23;;
65373;SDS011;52070;53.760;9.678;2023-03-01T14:13:24;23.52;;;11.43;;
65373;SDS011;52070;53.760;9.678;2023-03-01T14:16:03;26.75;;;12.43;;
65373;SDS011;52070;53.760;9.678;2023-03-01T14:18:42;23.55;;;11.38;;
65373;SDS011;52070;53.760;9.678;2023-03-01T14:21:19;23.77;;;11.55;;
65373;SDS011;52070;53.760;9.678;2023-03-01T14:23:48;22.00;;;11.30;;
65373;SDS011;52070;53.760;9.678;2023-03-01T14:26:19;22.63;;;12.13;;
65373;SDS011;52070;53.760;9.678;2023-03-01T14:28:47;25.70;;;12.20;;
65373;SDS011;52070;53.760;9.678;2023-03-01T14:31:35;25.50;;;12.23;;
65373;SDS011;52070;53.760;9.678;2023-03-01T14:34:04;28.35;;;11.27;;
65373;SDS011;52070;53.760;9.678;2023-03-01T14:36:33;25.42;;;12.85;;
65373;SDS011;52070;53.760;9.678;2023-03-01T14:39:00;22.30;;;11.30;;
65373;SDS011;52070;53.760;9.678;2023-03-01T14:41:32;19.70;;;10.48;;
65373;SDS011;52070;53.760;9.678;2023-03-01T14:44:01;17.75;;;9.18;;
65373;SDS011;52070;53.760;9.678;2023-03-01T14:49:01;18.38;;;9.48;;
65373;SDS011;52070;53.760;9.678;2023-03-01T14:51:30;16.92;;;8.75;;
65373;SDS011;52070;53.760;9.678;2023-03-01T14:54:02;18.42;;;8.68;;
65373;SDS011;52070;53.760;9.678;2023-03-01T14:56:42;19.90;;;8.93;;
65373;SDS011;52070;53.760;9.678;2023-03-01T14:59:11;18.05;;;10.13;;
65373;SDS011;52070;53.760;9.678;2023-03-01T15:01:39;19.75;;;9.32;;
65373;SDS011;52070;53.760;9.678;2023-03-01T15:04:07;16.70;;;8.23;;